Aguas de Lindoia, Brazil
Current Conditions -  °F | °C
As of 2:00 AM on Thursday 27 Nov 2014 (Local Time) from SBKP Reporting Station
Overcast Overcast  
Wind Chill: 70°   Ceiling: 8000
Heat Index: 70°   Visibility: 6mi
Dew Point: 70°   Wind: 3mph
Humidity: 100%   Direction: 180°S
Pressure: 29.91"   Gusts: NA
Location:  22.48°S, 46.63°W
Report Text: SBKP 270400Z 18003KT 9000 SCT005 SCT023 OVC080 21/21 Q1013
Loading
Personal Weather Stations






























Interactive Weather Map New forecast layout! Learn more

10-Day Weather Forecast

Advertisements
Track Severe Weather on mobile